createdAt,value
2023-04-10T00:02:24.162Z,8.60
2023-04-10T00:04:51.336Z,8.60
2023-04-10T00:07:18.368Z,8.60
2023-04-10T00:09:45.622Z,8.50
2023-04-10T00:12:12.671Z,8.50
2023-04-10T00:14:39.422Z,8.50
2023-04-10T00:22:18.681Z,8.40
2023-04-10T00:24:45.896Z,8.40
2023-04-10T00:27:12.835Z,8.40
2023-04-10T00:29:39.943Z,8.40
2023-04-10T00:32:06.907Z,8.30
2023-04-10T00:34:33.682Z,8.30
2023-04-10T00:37:00.604Z,8.30
2023-04-10T00:39:27.611Z,8.30
2023-04-10T00:41:55.318Z,8.30
2023-04-10T00:44:23.290Z,8.30
2023-04-10T00:46:50.464Z,8.30
2023-04-10T00:49:18.515Z,8.20
2023-04-10T00:51:45.484Z,8.20
2023-04-10T00:54:12.475Z,8.10
2023-04-10T00:56:40.404Z,8.00
2023-04-10T00:59:07.685Z,8.00
2023-04-10T01:01:34.617Z,7.90
2023-04-10T01:04:02.075Z,7.90
2023-04-10T01:06:57.787Z,7.80
2023-04-10T01:09:44.414Z,7.80
2023-04-10T01:12:39.501Z,7.80
2023-04-10T01:15:12.941Z,7.70
2023-04-10T01:17:50.836Z,7.70
2023-04-10T01:20:23.656Z,7.70
2023-04-10T01:23:21.887Z,7.70
2023-04-10T01:25:54.065Z,7.60
2023-04-10T01:28:21.439Z,7.60
2023-04-10T01:30:52.386Z,7.50
2023-04-10T01:33:22.559Z,7.50
2023-04-10T01:35:58.179Z,7.50
2023-04-10T01:38:27.625Z,7.50
2023-04-10T01:40:56.026Z,7.50
2023-04-10T01:43:26.170Z,7.40
2023-04-10T01:45:53.490Z,7.40
2023-04-10T01:48:21.790Z,7.30
2023-04-10T01:50:49.509Z,7.30
2023-04-10T01:53:17.663Z,7.30
2023-04-10T01:55:44.914Z,7.30
2023-04-10T01:58:12.192Z,7.30
2023-04-10T02:00:43.585Z,7.40
2023-04-10T02:03:11.461Z,7.40
2023-04-10T02:05:50.992Z,7.40
2023-04-10T02:08:37.663Z,7.40
2023-04-10T02:11:15.430Z,7.40
2023-04-10T02:13:43.072Z,7.40
2023-04-10T02:16:11.809Z,7.40
2023-04-10T02:18:40.845Z,7.30
2023-04-10T02:21:08.325Z,7.30
2023-04-10T02:23:36.495Z,7.30
2023-04-10T02:26:10.029Z,7.20
2023-04-10T02:28:40.370Z,7.10
2023-04-10T02:31:07.947Z,7.10
2023-04-10T02:33:34.977Z,7.10
2023-04-10T02:36:02.227Z,7.00
2023-04-10T02:38:29.080Z,7.00
2023-04-10T02:40:56.176Z,7.00
2023-04-10T02:43:23.192Z,6.90
2023-04-10T02:45:49.983Z,6.90
2023-04-10T02:48:16.968Z,6.90
2023-04-10T02:50:46.523Z,6.90
2023-04-10T02:53:16.967Z,6.90
2023-04-10T02:55:43.805Z,6.80
2023-04-10T02:58:13.851Z,6.70
2023-04-10T03:00:41.745Z,6.70
2023-04-10T03:03:08.654Z,6.70
2023-04-10T03:05:36.070Z,6.70
2023-04-10T03:08:02.848Z,6.70
2023-04-10T03:10:29.738Z,6.60
2023-04-10T03:12:56.602Z,6.60
2023-04-10T03:15:23.389Z,6.50
2023-04-10T03:17:50.673Z,6.50
2023-04-10T03:20:17.625Z,6.40
2023-04-10T03:22:44.688Z,6.40
2023-04-10T03:25:11.538Z,6.40
2023-04-10T03:27:38.799Z,6.40
2023-04-10T03:30:06.476Z,6.40
2023-04-10T03:32:33.319Z,6.40
2023-04-10T03:35:00.147Z,6.40
2023-04-10T03:37:29.784Z,6.40
2023-04-10T03:39:56.526Z,6.40
2023-04-10T03:42:23.391Z,6.40
2023-04-10T03:44:50.324Z,6.40
2023-04-10T03:47:17.266Z,6.40
2023-04-10T03:49:44.233Z,6.40
2023-04-10T03:52:11.142Z,6.40
2023-04-10T03:54:37.939Z,6.30
2023-04-10T03:57:05.079Z,6.30
2023-04-10T03:59:38.652Z,6.30
2023-04-10T04:02:07.753Z,6.30
2023-04-10T04:04:34.922Z,6.40
2023-04-10T04:07:02.041Z,6.40
2023-04-10T04:09:28.841Z,6.40
2023-04-10T04:11:56.374Z,6.40
2023-04-10T04:14:23.895Z,6.40
2023-04-10T04:16:51.010Z,6.50
2023-04-10T04:19:17.877Z,6.50
2023-04-10T04:21:44.628Z,6.40
2023-04-10T04:24:11.517Z,6.40
2023-04-10T04:26:38.360Z,6.40
2023-04-10T04:29:05.323Z,6.40
2023-04-10T04:31:32.838Z,6.40
2023-04-10T04:34:00.589Z,6.40
2023-04-10T04:36:28.214Z,6.50
2023-04-10T04:38:55.357Z,6.50
2023-04-10T04:41:22.231Z,6.50
2023-04-10T04:43:49.533Z,6.50
2023-04-10T04:46:16.312Z,6.50
2023-04-10T04:48:43.143Z,6.50
2023-04-10T04:51:10.013Z,6.50
2023-04-10T04:53:37.014Z,6.50
2023-04-10T04:56:04.109Z,6.60
2023-04-10T04:58:31.248Z,6.60
2023-04-10T05:00:58.135Z,6.60
2023-04-10T05:03:25.646Z,6.60
2023-04-10T05:05:52.779Z,6.70
2023-04-10T05:08:19.872Z,6.80
2023-04-10T05:10:46.974Z,6.90
2023-04-10T05:13:15.702Z,6.90
2023-04-10T05:15:43.018Z,6.90
2023-04-10T05:18:10.124Z,7.00
2023-04-10T05:20:37.688Z,7.00
2023-04-10T05:23:04.682Z,7.00
2023-04-10T05:25:31.774Z,7.00
2023-04-10T05:27:58.770Z,7.00
2023-04-10T05:30:25.978Z,7.00
2023-04-10T05:32:52.822Z,7.00
2023-04-10T05:35:19.732Z,7.10
2023-04-10T05:37:46.762Z,7.20
2023-04-10T05:40:13.620Z,7.30
2023-04-10T05:42:41.411Z,7.30
2023-04-10T05:45:09.343Z,7.40
2023-04-10T05:47:36.314Z,7.40
2023-04-10T05:50:03.319Z,7.50
2023-04-10T05:52:31.027Z,7.50
2023-04-10T05:54:58.065Z,7.50
2023-04-10T05:57:25.925Z,7.60
2023-04-10T05:59:52.680Z,7.80
2023-04-10T06:02:19.688Z,7.90
2023-04-10T06:04:46.934Z,8.00
2023-04-10T06:07:13.848Z,8.10
2023-04-10T06:09:40.782Z,8.20
2023-04-10T06:12:07.877Z,8.20
2023-04-10T06:14:35.221Z,8.20
2023-04-10T06:17:02.198Z,8.20
2023-04-10T06:19:28.970Z,8.30
2023-04-10T06:21:55.874Z,8.30
2023-04-10T06:24:22.736Z,8.40
2023-04-10T06:26:49.705Z,8.50
2023-04-10T06:29:16.697Z,8.50
2023-04-10T06:31:44.220Z,8.60
2023-04-10T06:34:11.248Z,8.70
2023-04-10T06:36:38.675Z,8.80
2023-04-10T06:39:06.612Z,8.90
2023-04-10T06:41:33.676Z,9.00
2023-04-10T06:44:01.887Z,9.10
2023-04-10T06:46:30.640Z,9.30
2023-04-10T06:48:57.591Z,9.40
2023-04-10T06:51:25.961Z,9.60
2023-04-10T06:53:52.874Z,9.70
2023-04-10T06:56:20.471Z,9.90
2023-04-10T06:58:47.390Z,10.00
2023-04-10T07:01:14.353Z,10.20
2023-04-10T07:03:41.450Z,10.30
2023-04-10T07:06:09.923Z,10.40
2023-04-10T07:08:36.911Z,10.60
2023-04-10T07:11:03.785Z,10.70
2023-04-10T07:13:30.690Z,10.80
2023-04-10T07:15:57.629Z,10.80
2023-04-10T07:18:24.632Z,10.80
2023-04-10T07:20:51.879Z,10.90
2023-04-10T07:23:19.706Z,11.00
2023-04-10T07:25:46.888Z,11.00
2023-04-10T07:28:13.886Z,11.10
2023-04-10T07:30:40.676Z,11.10
2023-04-10T07:33:07.849Z,11.20
2023-04-10T07:35:35.060Z,11.30
2023-04-10T07:38:01.933Z,11.40
2023-04-10T07:40:28.942Z,11.60
2023-04-10T07:42:55.853Z,11.70
2023-04-10T07:45:22.693Z,11.80
2023-04-10T07:47:49.562Z,12.00
2023-04-10T07:50:16.385Z,12.10
2023-04-10T07:52:43.174Z,12.20
2023-04-10T07:55:10.507Z,12.40
2023-04-10T07:57:37.582Z,12.50
2023-04-10T08:00:05.076Z,12.60
2023-04-10T08:02:32.184Z,12.70
2023-04-10T08:04:59.063Z,12.80
2023-04-10T08:07:25.918Z,12.90
2023-04-10T08:09:52.641Z,13.10
2023-04-10T08:12:19.331Z,13.10
2023-04-10T08:14:46.062Z,13.20
2023-04-10T08:17:14.913Z,13.30
2023-04-10T08:19:43.375Z,13.30
2023-04-10T08:22:10.401Z,13.30
2023-04-10T08:24:37.135Z,13.30
2023-04-10T08:27:03.913Z,13.30
2023-04-10T08:29:30.899Z,13.30
2023-04-10T08:32:00.674Z,13.40
2023-04-10T08:34:28.235Z,13.50
2023-04-10T08:36:55.542Z,13.50
2023-04-10T08:39:22.367Z,13.60
2023-04-10T08:41:49.292Z,13.70
2023-04-10T08:44:16.826Z,13.80
2023-04-10T08:46:45.325Z,13.80
2023-04-10T08:49:21.982Z,13.80
2023-04-10T08:51:59.145Z,13.90
2023-04-10T08:54:30.729Z,13.90
2023-04-10T08:56:58.617Z,14.00
2023-04-10T08:59:25.635Z,14.10
2023-04-10T09:01:53.565Z,14.20
2023-04-10T09:04:21.285Z,14.30
2023-04-10T09:06:48.117Z,14.40
2023-04-10T09:09:14.853Z,14.40
2023-04-10T09:11:56.358Z,14.50
2023-04-10T09:14:24.915Z,14.60
2023-04-10T09:16:53.272Z,14.70
2023-04-10T09:19:33.448Z,14.80
2023-04-10T09:22:00.397Z,14.80
2023-04-10T09:24:27.346Z,14.80
2023-04-10T09:26:54.732Z,14.80
2023-04-10T09:29:21.610Z,14.80
2023-04-10T09:31:48.477Z,14.80
2023-04-10T09:34:23.355Z,14.80
2023-04-10T09:36:58.638Z,14.90
2023-04-10T09:39:37.085Z,14.90
2023-04-10T09:42:04.303Z,15.00
2023-04-10T09:44:32.817Z,15.00
2023-04-10T09:47:20.156Z,15.00
2023-04-10T09:49:55.110Z,15.10
2023-04-10T09:52:27.765Z,15.20
2023-04-10T09:54:57.423Z,15.20
2023-04-10T09:57:26.228Z,15.10
2023-04-10T09:59:55.078Z,15.10
2023-04-10T10:02:24.533Z,15.10
2023-04-10T10:04:52.725Z,15.20
2023-04-10T10:07:21.413Z,15.30
2023-04-10T10:09:50.388Z,15.40
2023-04-10T10:12:34.550Z,15.60
2023-04-10T10:15:08.973Z,15.80
2023-04-10T10:17:43.533Z,15.90
2023-04-10T10:20:11.795Z,16.00
2023-04-10T10:22:39.539Z,15.90
2023-04-10T10:25:08.348Z,15.90
2023-04-10T10:27:38.758Z,15.80
2023-04-10T10:30:20.356Z,15.70
2023-04-10T10:32:54.643Z,15.80
2023-04-10T10:35:22.987Z,15.70
2023-04-10T10:37:51.086Z,15.70
2023-04-10T10:40:56.838Z,15.70
2023-04-10T10:43:56.884Z,15.80
2023-04-10T10:46:48.849Z,15.90
2023-04-10T10:49:15.968Z,16.10
2023-04-10T10:51:50.551Z,16.30
2023-04-10T10:54:34.978Z,16.50
2023-04-10T10:57:05.413Z,16.60
2023-04-10T10:59:48.130Z,16.60
2023-04-10T11:02:19.555Z,16.70
2023-04-10T11:04:48.075Z,16.70
2023-04-10T11:07:16.188Z,16.70
2023-04-10T11:09:57.231Z,16.80
2023-04-10T11:12:25.465Z,16.80
2023-04-10T11:15:00.632Z,16.70
2023-04-10T11:17:46.784Z,16.70
2023-04-10T11:20:13.579Z,16.90
2023-04-10T11:23:12.771Z,17.00
2023-04-10T11:25:52.951Z,17.30
2023-04-10T11:28:33.188Z,17.40
2023-04-10T11:31:21.816Z,17.50
2023-04-10T11:33:52.133Z,17.60
2023-04-10T11:36:19.104Z,17.60
2023-04-10T11:38:59.434Z,17.60
2023-04-10T11:41:34.505Z,17.70
2023-04-10T11:44:03.274Z,17.80
2023-04-10T11:46:31.006Z,17.90
2023-04-10T11:49:03.872Z,18.10
2023-04-10T11:51:31.686Z,18.50
2023-04-10T11:54:12.200Z,18.90
2023-04-10T11:56:42.125Z,19.10
2023-04-10T11:59:11.215Z,19.00
2023-04-10T12:01:42.112Z,18.80
2023-04-10T12:04:17.926Z,18.50
2023-04-10T12:06:51.398Z,18.20
2023-04-10T12:09:21.285Z,18.20
2023-04-10T12:11:59.374Z,18.30
2023-04-10T12:14:36.984Z,18.90
2023-04-10T12:17:05.696Z,19.70
2023-04-10T12:19:33.805Z,20.60
2023-04-10T12:22:04.007Z,21.50
2023-04-10T12:24:53.960Z,22.60
2023-04-10T12:27:27.871Z,23.50
2023-04-10T12:29:56.948Z,24.10
2023-04-10T12:32:25.017Z,24.70
2023-04-10T12:34:53.217Z,24.90
2023-04-10T12:37:20.837Z,24.80
2023-04-10T12:39:47.815Z,24.30
2023-04-10T12:42:20.692Z,23.90
2023-04-10T12:44:55.847Z,23.70
2023-04-10T12:47:24.020Z,23.70
2023-04-10T12:50:11.118Z,23.90
2023-04-10T12:52:45.290Z,23.90
2023-04-10T12:55:16.215Z,24.20
2023-04-10T12:57:47.816Z,24.20
2023-04-10T13:00:19.999Z,23.90
2023-04-10T13:02:48.703Z,23.90
2023-04-10T13:05:15.991Z,24.10
2023-04-10T13:07:42.909Z,24.60
2023-04-10T13:10:10.397Z,25.30
2023-04-10T13:12:38.995Z,25.70
2023-04-10T13:15:07.740Z,25.50
2023-04-10T13:17:34.915Z,24.80
2023-04-10T13:20:02.018Z,23.60
2023-04-10T13:22:28.800Z,22.40
2023-04-10T13:24:55.612Z,21.30
2023-04-10T13:27:22.402Z,20.60
2023-04-10T13:29:49.158Z,20.30
2023-04-10T13:32:15.928Z,20.40
2023-04-10T13:34:42.707Z,20.90
2023-04-10T13:37:13.030Z,21.50
2023-04-10T13:39:39.807Z,22.00
2023-04-10T13:42:06.584Z,22.50
2023-04-10T13:44:33.378Z,22.90
2023-04-10T13:47:00.181Z,22.80
2023-04-10T13:49:30.411Z,22.30
2023-04-10T13:51:58.029Z,22.20
2023-04-10T13:54:29.563Z,22.40
2023-04-10T13:56:57.769Z,22.80
2023-04-10T13:59:25.025Z,23.50
2023-04-10T14:01:52.789Z,23.60
2023-04-10T14:04:20.013Z,23.30
2023-04-10T14:06:47.012Z,23.20
2023-04-10T14:09:13.776Z,22.90
2023-04-10T14:11:40.560Z,23.10
2023-04-10T14:14:07.372Z,23.20
2023-04-10T14:16:34.231Z,23.20
2023-04-10T14:19:00.962Z,23.30
2023-04-10T14:21:27.727Z,23.50
2023-04-10T14:23:54.459Z,23.70
2023-04-10T14:26:21.640Z,23.90
2023-04-10T14:28:48.370Z,24.10
2023-04-10T14:31:15.468Z,24.00
2023-04-10T14:33:42.226Z,23.90
2023-04-10T14:36:09.514Z,23.70
2023-04-10T14:38:36.968Z,23.70
2023-04-10T14:41:03.845Z,23.80
2023-04-10T14:43:30.696Z,24.20
2023-04-10T14:45:57.429Z,24.40
2023-04-10T14:48:24.264Z,24.50
2023-04-10T14:50:51.045Z,24.80
2023-04-10T14:53:17.855Z,24.50
2023-04-10T14:55:44.617Z,24.40
2023-04-10T14:58:11.405Z,24.10
2023-04-10T15:00:38.307Z,24.00
2023-04-10T15:03:06.504Z,23.50
2023-04-10T15:05:33.555Z,23.30
2023-04-10T15:08:00.341Z,23.30
2023-04-10T15:10:30.723Z,23.20
2023-04-10T15:12:57.462Z,23.50
2023-04-10T15:15:24.253Z,23.70
2023-04-10T15:17:51.035Z,24.10
2023-04-10T15:20:17.820Z,24.60
2023-04-10T15:22:45.069Z,24.50
2023-04-10T15:25:14.863Z,24.20
2023-04-10T15:27:41.988Z,23.60
2023-04-10T15:30:09.079Z,23.20
2023-04-10T15:32:38.106Z,22.80
2023-04-10T15:35:05.502Z,22.60
2023-04-10T15:37:34.456Z,22.20
2023-04-10T15:40:01.265Z,21.80
2023-04-10T15:42:28.172Z,21.30
2023-04-10T15:44:54.946Z,20.90
2023-04-10T15:47:21.725Z,20.60
2023-04-10T15:49:48.504Z,20.20
2023-04-10T15:52:16.449Z,19.90
2023-04-10T15:54:44.467Z,19.70
2023-04-10T15:57:11.470Z,19.50
2023-04-10T15:59:38.504Z,19.30
2023-04-10T16:02:05.613Z,19.10
2023-04-10T16:04:32.566Z,18.90
2023-04-10T16:06:59.803Z,18.80
2023-04-10T16:09:27.235Z,18.70
2023-04-10T16:11:56.013Z,18.50
2023-04-10T16:14:23.056Z,18.50
2023-04-10T16:16:51.200Z,18.30
2023-04-10T16:19:17.929Z,18.20
2023-04-10T16:21:44.872Z,18.10
2023-04-10T16:24:11.811Z,18.00
2023-04-10T16:26:38.995Z,17.90
2023-04-10T16:29:06.575Z,17.90
2023-04-10T16:31:33.527Z,17.80
2023-04-10T16:34:01.394Z,17.70
2023-04-10T16:36:28.313Z,17.70
2023-04-10T16:38:55.634Z,17.60
2023-04-10T16:41:23.077Z,17.60
2023-04-10T16:43:50.238Z,17.50
2023-04-10T16:46:17.198Z,17.40
2023-04-10T16:48:44.385Z,17.30
2023-04-10T16:51:20.261Z,17.20
2023-04-10T16:53:47.223Z,17.10
2023-04-10T16:56:15.266Z,16.90
2023-04-10T16:58:42.776Z,16.80
2023-04-10T17:01:18.017Z,16.70
2023-04-10T17:03:47.539Z,16.60
2023-04-10T17:06:16.095Z,16.40
2023-04-10T17:08:43.817Z,16.30
2023-04-10T17:11:12.729Z,16.20
2023-04-10T17:13:42.856Z,16.10
2023-04-10T17:16:10.004Z,16.00
2023-04-10T17:18:36.967Z,15.90
2023-04-10T17:21:03.951Z,15.80
2023-04-10T17:23:30.866Z,15.70
2023-04-10T17:25:57.895Z,15.60
2023-04-10T17:28:24.808Z,15.50
2023-04-10T17:30:51.555Z,15.40
2023-04-10T17:33:18.464Z,15.30
2023-04-10T17:35:45.518Z,15.10
2023-04-10T17:38:12.344Z,15.10
2023-04-10T17:40:41.172Z,14.90
2023-04-10T17:43:08.521Z,14.80
2023-04-10T17:45:39.795Z,14.70
2023-04-10T17:48:07.581Z,14.60
2023-04-10T17:50:35.059Z,14.50
2023-04-10T17:53:01.858Z,14.40
2023-04-10T17:55:28.601Z,14.40
2023-04-10T17:57:57.950Z,14.20
2023-04-10T18:00:25.132Z,14.20
2023-04-10T18:02:58.053Z,14.10
2023-04-10T18:05:25.325Z,14.00
2023-04-10T18:07:52.281Z,13.90
2023-04-10T18:10:19.457Z,13.80
2023-04-10T18:12:46.383Z,13.80
2023-04-10T18:15:16.420Z,13.70
2023-04-10T18:17:43.378Z,13.60
2023-04-10T18:20:10.677Z,13.50
2023-04-10T18:22:37.394Z,13.50
2023-04-10T18:25:05.286Z,13.40
2023-04-10T18:27:34.376Z,13.40
2023-04-10T18:30:01.265Z,13.30
2023-04-10T18:32:27.998Z,13.30
2023-04-10T18:34:54.730Z,13.30
2023-04-10T18:37:21.460Z,13.30
2023-04-10T18:39:48.372Z,13.20
2023-04-10T18:42:15.221Z,13.20
2023-04-10T18:44:42.194Z,13.20
2023-04-10T18:47:11.033Z,13.20
2023-04-10T18:49:38.006Z,13.10
2023-04-10T18:52:04.910Z,13.00
2023-04-10T18:54:33.879Z,12.90
2023-04-10T18:57:01.003Z,12.80
2023-04-10T18:59:28.385Z,12.70
2023-04-10T19:01:55.998Z,12.70
2023-04-10T19:04:23.089Z,12.70
2023-04-10T19:06:50.511Z,12.60
2023-04-10T19:09:17.282Z,12.50
2023-04-10T19:11:44.043Z,12.50
2023-04-10T19:14:10.817Z,12.50
2023-04-10T19:16:37.629Z,12.40
2023-04-10T19:19:04.422Z,12.30
2023-04-10T19:21:31.781Z,12.30
2023-04-10T19:23:58.734Z,12.20
2023-04-10T19:26:25.532Z,12.20
2023-04-10T19:28:52.240Z,12.10
2023-04-10T19:31:19.686Z,12.10
2023-04-10T19:33:46.553Z,12.00
2023-04-10T19:36:16.424Z,12.00
2023-04-10T19:38:48.523Z,11.80
2023-04-10T19:41:17.598Z,11.70
2023-04-10T19:43:44.764Z,11.50
2023-04-10T19:46:19.099Z,11.50
2023-04-10T19:48:46.723Z,11.40
2023-04-10T19:51:13.633Z,11.40
2023-04-10T19:53:41.903Z,11.30
2023-04-10T19:56:08.812Z,11.30
2023-04-10T19:58:41.211Z,11.30
2023-04-10T20:01:09.324Z,11.30
2023-04-10T20:03:38.621Z,11.20
2023-04-10T20:06:09.017Z,11.20
2023-04-10T20:08:36.617Z,11.20
2023-04-10T20:11:06.263Z,11.10
2023-04-10T20:13:34.839Z,11.10
2023-04-10T20:16:03.095Z,11.00
2023-04-10T20:18:31.671Z,11.00
2023-04-10T20:20:58.601Z,11.00
2023-04-10T20:23:25.453Z,11.00
2023-04-10T20:25:52.536Z,11.00
2023-04-10T20:28:19.502Z,10.80
2023-04-10T20:30:46.386Z,10.70
2023-04-10T20:33:13.840Z,10.70
2023-04-10T20:35:40.919Z,10.60
2023-04-10T20:38:07.809Z,10.60
2023-04-10T20:40:35.924Z,10.50
2023-04-10T20:43:02.780Z,10.60
2023-04-10T20:45:30.796Z,10.50
2023-04-10T20:47:57.934Z,10.40
2023-04-10T20:50:24.781Z,10.40
2023-04-10T20:52:51.782Z,10.30
2023-04-10T20:55:18.620Z,10.30
2023-04-10T20:57:45.506Z,10.20
2023-04-10T21:00:13.170Z,10.20
2023-04-10T21:02:41.191Z,10.20
2023-04-10T21:05:08.790Z,10.10
2023-04-10T21:07:35.542Z,10.10
2023-04-10T21:10:02.414Z,10.10
2023-04-10T21:12:29.217Z,10.00
2023-04-10T21:14:56.113Z,10.00
2023-04-10T21:17:23.561Z,10.00
2023-04-10T21:19:50.584Z,10.00
2023-04-10T21:22:17.431Z,10.00
2023-04-10T21:24:46.297Z,9.90
2023-04-10T21:27:13.291Z,9.90
2023-04-10T21:29:40.309Z,9.80
2023-04-10T21:32:07.188Z,9.80
2023-04-10T21:34:34.106Z,9.80
2023-04-10T21:37:01.054Z,9.80
2023-04-10T21:39:29.389Z,9.70
2023-04-10T21:41:56.315Z,9.70
2023-04-10T21:44:23.196Z,9.70
2023-04-10T21:46:49.934Z,9.70
2023-04-10T21:49:16.838Z,9.60
2023-04-10T21:51:43.749Z,9.60
2023-04-10T21:54:10.497Z,9.60
2023-04-10T21:56:38.818Z,9.60
2023-04-10T21:59:05.925Z,9.60
2023-04-10T22:01:33.864Z,9.60
2023-04-10T22:04:01.011Z,9.50
2023-04-10T22:06:27.978Z,9.50
2023-04-10T22:08:54.901Z,9.40
2023-04-10T22:11:21.890Z,9.40
2023-04-10T22:13:48.813Z,9.30
2023-04-10T22:16:15.780Z,9.30
2023-04-10T22:18:42.713Z,9.20
2023-04-10T22:21:09.604Z,9.20
2023-04-10T22:23:36.490Z,9.20
2023-04-10T22:26:03.285Z,9.10
2023-04-10T22:28:30.187Z,9.10
2023-04-10T22:30:57.077Z,9.10
2023-04-10T22:33:24.311Z,9.10
2023-04-10T22:35:53.629Z,9.10
2023-04-10T22:38:20.606Z,9.00
2023-04-10T22:40:47.406Z,9.00
2023-04-10T22:43:14.253Z,8.90
2023-04-10T22:45:42.096Z,8.90
2023-04-10T22:48:08.862Z,8.80
2023-04-10T22:50:36.191Z,8.80
2023-04-10T22:53:03.176Z,8.80
2023-04-10T22:55:30.065Z,8.70
2023-04-10T22:57:56.837Z,8.70
2023-04-10T23:00:23.744Z,8.70
2023-04-10T23:02:50.574Z,8.70
2023-04-10T23:05:17.670Z,8.60
2023-04-10T23:07:44.594Z,8.60
2023-04-10T23:10:11.436Z,8.60
2023-04-10T23:12:38.219Z,8.60
2023-04-10T23:15:06.334Z,8.50
2023-04-10T23:17:33.385Z,8.50
2023-04-10T23:20:00.131Z,8.50
2023-04-10T23:22:31.137Z,8.50
2023-04-10T23:24:58.148Z,8.40
2023-04-10T23:27:25.265Z,8.40
2023-04-10T23:29:52.303Z,8.40
2023-04-10T23:32:19.099Z,8.30
2023-04-10T23:34:46.045Z,8.30
2023-04-10T23:37:12.840Z,8.30
2023-04-10T23:39:39.941Z,8.20
2023-04-10T23:42:06.820Z,8.20
2023-04-10T23:44:33.732Z,8.20
2023-04-10T23:47:00.791Z,8.10
2023-04-10T23:49:28.960Z,8.10
2023-04-10T23:51:55.745Z,8.10
2023-04-10T23:54:22.608Z,8.10
2023-04-10T23:56:49.399Z,8.00
2023-04-10T23:59:17.051Z,8.00
